Ruby, Alaska
Current Conditions -  °F | °C
As of 11:56 AM on Sunday 23 Nov 2014 (Local Time) from PARY Reporting Station
Light Snow Light Snow  
Wind Chill: -12°   Ceiling: 2500
Heat Index:   Visibility: 4mi
Dew Point: -1°   Wind: 9mph
Humidity: 84%   Direction: 80°E
Pressure: 29.57"   Gusts: NA
Location:  64.74°N, 155.49°W
Report Text: PARY 232056Z AUTO 08008KT 4SM -SN BR FEW001 SCT018 OVC025 M16/M18 A2957 RMK AO2 TSNO 53010 60000 T11611183 P0000 SLP032 $
Loading
Personal Weather Stations






























Interactive Weather Map New forecast layout! Learn more

10-Day Weather Forecast

Advertisements
Track Severe Weather on mobile